sensor_id;sensor_type;location;lat;lon;timestamp;temperature;humidity
40808;DHT22;26523;52.504;13.498;2022-07-19T00:02:06;18.40;99.90
40808;DHT22;26523;52.504;13.498;2022-07-19T00:04:33;18.30;99.90
40808;DHT22;26523;52.504;13.498;2022-07-19T00:06:59;18.40;99.90
40808;DHT22;26523;52.504;13.498;2022-07-19T00:09:25;18.30;99.90
40808;DHT22;26523;52.504;13.498;2022-07-19T00:11:51;18.30;99.90
40808;DHT22;26523;52.504;13.498;2022-07-19T00:14:17;18.20;99.90
40808;DHT22;26523;52.504;13.498;2022-07-19T00:16:43;18.20;99.90
40808;DHT22;26523;52.504;13.498;2022-07-19T00:19:09;18.20;99.90
40808;DHT22;26523;52.504;13.498;2022-07-19T00:21:34;18.30;99.90
40808;DHT22;26523;52.504;13.498;2022-07-19T00:24:00;18.20;99.90
40808;DHT22;26523;52.504;13.498;2022-07-19T00:26:27;18.20;99.90
40808;DHT22;26523;52.504;13.498;2022-07-19T00:28:53;18.10;99.90
40808;DHT22;26523;52.504;13.498;2022-07-19T00:31:21;18.10;99.90
40808;DHT22;26523;52.504;13.498;2022-07-19T00:33:46;18.10;99.90
40808;DHT22;26523;52.504;13.498;2022-07-19T00:36:12;18.00;99.90
40808;DHT22;26523;52.504;13.498;2022-07-19T00:38:38;17.90;99.90
40808;DHT22;26523;52.504;13.498;2022-07-19T00:41:04;17.90;99.90
40808;DHT22;26523;52.504;13.498;2022-07-19T00:43:29;17.80;99.90
40808;DHT22;26523;52.504;13.498;2022-07-19T00:45:55;17.80;99.90
40808;DHT22;26523;52.504;13.498;2022-07-19T00:48:21;17.90;99.90
40808;DHT22;26523;52.504;13.498;2022-07-19T00:50:47;18.00;99.90
40808;DHT22;26523;52.504;13.498;2022-07-19T00:53:13;17.90;99.90
40808;DHT22;26523;52.504;13.498;2022-07-19T00:55:41;17.90;99.90
40808;DHT22;26523;52.504;13.498;2022-07-19T00:58:08;17.90;99.90
40808;DHT22;26523;52.504;13.498;2022-07-19T01:00:34;17.90;99.90
40808;DHT22;26523;52.504;13.498;2022-07-19T01:03:00;17.90;99.90
40808;DHT22;26523;52.504;13.498;2022-07-19T01:05:27;17.80;99.90
40808;DHT22;26523;52.504;13.498;2022-07-19T01:07:52;17.80;99.90
40808;DHT22;26523;52.504;13.498;2022-07-19T01:10:18;17.70;99.90
40808;DHT22;26523;52.504;13.498;2022-07-19T01:12:44;17.60;99.90
40808;DHT22;26523;52.504;13.498;2022-07-19T01:17:43;17.60;99.90
40808;DHT22;26523;52.504;13.498;2022-07-19T01:20:10;17.60;99.90
40808;DHT22;26523;52.504;13.498;2022-07-19T01:22:36;17.60;99.90
40808;DHT22;26523;52.504;13.498;2022-07-19T01:25:02;17.60;99.90
40808;DHT22;26523;52.504;13.498;2022-07-19T01:27:28;17.60;99.90
40808;DHT22;26523;52.504;13.498;2022-07-19T01:29:53;17.50;99.90
40808;DHT22;26523;52.504;13.498;2022-07-19T01:32:19;17.60;99.90
40808;DHT22;26523;52.504;13.498;2022-07-19T01:34:44;17.50;99.90
40808;DHT22;26523;52.504;13.498;2022-07-19T01:37:10;17.40;99.90
40808;DHT22;26523;52.504;13.498;2022-07-19T01:46:34;17.40;99.90
40808;DHT22;26523;52.504;13.498;2022-07-19T01:48:59;17.30;99.90
40808;DHT22;26523;52.504;13.498;2022-07-19T01:51:25;17.40;99.90
40808;DHT22;26523;52.504;13.498;2022-07-19T01:53:50;17.30;99.90
40808;DHT22;26523;52.504;13.498;2022-07-19T01:56:16;17.20;99.90
40808;DHT22;26523;52.504;13.498;2022-07-19T01:58:41;17.20;99.90
40808;DHT22;26523;52.504;13.498;2022-07-19T02:01:07;17.20;99.90
40808;DHT22;26523;52.504;13.498;2022-07-19T02:03:33;17.20;99.90
40808;DHT22;26523;52.504;13.498;2022-07-19T02:05:59;17.20;99.90
40808;DHT22;26523;52.504;13.498;2022-07-19T02:08:25;17.10;99.90
40808;DHT22;26523;52.504;13.498;2022-07-19T02:10:51;17.10;99.90
40808;DHT22;26523;52.504;13.498;2022-07-19T02:13:16;17.00;99.90
40808;DHT22;26523;52.504;13.498;2022-07-19T02:15:42;17.00;99.90
40808;DHT22;26523;52.504;13.498;2022-07-19T02:18:07;16.90;99.90
40808;DHT22;26523;52.504;13.498;2022-07-19T02:20:33;17.00;99.90
40808;DHT22;26523;52.504;13.498;2022-07-19T02:22:59;17.00;99.90
40808;DHT22;26523;52.504;13.498;2022-07-19T02:25:24;16.90;99.90
40808;DHT22;26523;52.504;13.498;2022-07-19T02:27:50;16.90;99.90
40808;DHT22;26523;52.504;13.498;2022-07-19T02:30:16;16.80;99.90
40808;DHT22;26523;52.504;13.498;2022-07-19T02:32:43;16.80;99.90
40808;DHT22;26523;52.504;13.498;2022-07-19T02:35:09;16.80;99.90
40808;DHT22;26523;52.504;13.498;2022-07-19T02:37:36;16.70;99.90
40808;DHT22;26523;52.504;13.498;2022-07-19T02:40:03;16.80;99.90
40808;DHT22;26523;52.504;13.498;2022-07-19T02:42:28;16.80;99.90
40808;DHT22;26523;52.504;13.498;2022-07-19T02:44:54;16.80;99.90
40808;DHT22;26523;52.504;13.498;2022-07-19T02:47:20;16.80;99.90
40808;DHT22;26523;52.504;13.498;2022-07-19T02:49:45;16.70;99.90
40808;DHT22;26523;52.504;13.498;2022-07-19T02:52:11;16.70;99.90
40808;DHT22;26523;52.504;13.498;2022-07-19T02:54:36;16.60;99.90
40808;DHT22;26523;52.504;13.498;2022-07-19T02:57:02;16.50;99.90
40808;DHT22;26523;52.504;13.498;2022-07-19T02:59:28;16.50;99.90
40808;DHT22;26523;52.504;13.498;2022-07-19T03:01:53;16.50;99.90
40808;DHT22;26523;52.504;13.498;2022-07-19T03:04:19;16.40;99.90
40808;DHT22;26523;52.504;13.498;2022-07-19T03:06:44;16.50;99.90
40808;DHT22;26523;52.504;13.498;2022-07-19T03:09:10;16.50;99.90
40808;DHT22;26523;52.504;13.498;2022-07-19T03:11:37;16.50;99.90
40808;DHT22;26523;52.504;13.498;2022-07-19T03:14:03;16.40;99.90
40808;DHT22;26523;52.504;13.498;2022-07-19T03:16:29;16.50;99.90
40808;DHT22;26523;52.504;13.498;2022-07-19T03:18:55;16.50;99.90
40808;DHT22;26523;52.504;13.498;2022-07-19T03:21:20;16.50;99.90
40808;DHT22;26523;52.504;13.498;2022-07-19T03:23:46;16.60;99.90
40808;DHT22;26523;52.504;13.498;2022-07-19T03:26:11;16.60;99.90
40808;DHT22;26523;52.504;13.498;2022-07-19T03:28:37;16.60;99.90
40808;DHT22;26523;52.504;13.498;2022-07-19T03:31:03;16.60;99.90
40808;DHT22;26523;52.504;13.498;2022-07-19T03:33:29;16.70;99.90
40808;DHT22;26523;52.504;13.498;2022-07-19T03:35:54;16.60;99.90
40808;DHT22;26523;52.504;13.498;2022-07-19T03:38:20;16.70;99.90
40808;DHT22;26523;52.504;13.498;2022-07-19T03:40:46;16.70;99.90
40808;DHT22;26523;52.504;13.498;2022-07-19T03:43:13;16.70;99.90
40808;DHT22;26523;52.504;13.498;2022-07-19T03:45:40;16.80;99.90
40808;DHT22;26523;52.504;13.498;2022-07-19T03:48:06;16.80;99.90
40808;DHT22;26523;52.504;13.498;2022-07-19T03:50:31;16.90;99.90
40808;DHT22;26523;52.504;13.498;2022-07-19T03:52:57;16.90;99.90
40808;DHT22;26523;52.504;13.498;2022-07-19T03:55:22;17.00;99.90
40808;DHT22;26523;52.504;13.498;2022-07-19T03:57:48;17.10;99.90
40808;DHT22;26523;52.504;13.498;2022-07-19T04:00:14;17.10;99.90
40808;DHT22;26523;52.504;13.498;2022-07-19T04:02:39;17.10;99.90
40808;DHT22;26523;52.504;13.498;2022-07-19T04:05:05;17.20;99.90
40808;DHT22;26523;52.504;13.498;2022-07-19T04:07:31;17.20;99.90
40808;DHT22;26523;52.504;13.498;2022-07-19T04:09:57;17.30;99.90
40808;DHT22;26523;52.504;13.498;2022-07-19T04:12:22;17.40;99.90
40808;DHT22;26523;52.504;13.498;2022-07-19T04:14:48;17.40;99.90
40808;DHT22;26523;52.504;13.498;2022-07-19T04:17:13;17.40;99.90
40808;DHT22;26523;52.504;13.498;2022-07-19T04:19:39;17.60;99.90
40808;DHT22;26523;52.504;13.498;2022-07-19T04:22:05;17.70;99.90
40808;DHT22;26523;52.504;13.498;2022-07-19T04:24:30;17.70;99.90
40808;DHT22;26523;52.504;13.498;2022-07-19T04:26:56;17.80;99.90
40808;DHT22;26523;52.504;13.498;2022-07-19T04:29:22;17.90;99.90
40808;DHT22;26523;52.504;13.498;2022-07-19T04:31:47;17.90;99.90
40808;DHT22;26523;52.504;13.498;2022-07-19T04:34:13;18.00;99.90
40808;DHT22;26523;52.504;13.498;2022-07-19T04:36:38;18.10;99.90
40808;DHT22;26523;52.504;13.498;2022-07-19T04:39:04;18.20;99.90
40808;DHT22;26523;52.504;13.498;2022-07-19T04:41:29;18.40;99.90
40808;DHT22;26523;52.504;13.498;2022-07-19T04:43:55;18.50;99.90
40808;DHT22;26523;52.504;13.498;2022-07-19T04:46:21;18.60;99.90
40808;DHT22;26523;52.504;13.498;2022-07-19T04:48:46;18.80;99.90
40808;DHT22;26523;52.504;13.498;2022-07-19T04:51:12;19.00;99.90
40808;DHT22;26523;52.504;13.498;2022-07-19T04:53:37;19.20;99.90
40808;DHT22;26523;52.504;13.498;2022-07-19T04:56:03;19.20;99.90
40808;DHT22;26523;52.504;13.498;2022-07-19T04:58:29;19.40;99.90
40808;DHT22;26523;52.504;13.498;2022-07-19T05:00:54;19.50;99.90
40808;DHT22;26523;52.504;13.498;2022-07-19T05:03:20;19.70;99.90
40808;DHT22;26523;52.504;13.498;2022-07-19T05:05:45;19.80;99.90
40808;DHT22;26523;52.504;13.498;2022-07-19T05:08:11;20.00;99.90
40808;DHT22;26523;52.504;13.498;2022-07-19T05:10:37;20.20;99.90
40808;DHT22;26523;52.504;13.498;2022-07-19T05:13:02;20.30;99.90
40808;DHT22;26523;52.504;13.498;2022-07-19T05:15:28;20.60;99.90
40808;DHT22;26523;52.504;13.498;2022-07-19T05:17:54;20.80;99.90
40808;DHT22;26523;52.504;13.498;2022-07-19T05:20:19;20.90;99.90
40808;DHT22;26523;52.504;13.498;2022-07-19T05:22:45;21.10;99.90
40808;DHT22;26523;52.504;13.498;2022-07-19T05:25:11;21.30;99.90
40808;DHT22;26523;52.504;13.498;2022-07-19T05:27:36;21.60;99.90
40808;DHT22;26523;52.504;13.498;2022-07-19T05:30:03;21.80;99.70
40808;DHT22;26523;52.504;13.498;2022-07-19T05:32:29;22.10;98.80
40808;DHT22;26523;52.504;13.498;2022-07-19T05:34:55;22.30;97.70
40808;DHT22;26523;52.504;13.498;2022-07-19T05:37:21;22.60;96.50
40808;DHT22;26523;52.504;13.498;2022-07-19T05:39:46;23.50;94.90
40808;DHT22;26523;52.504;13.498;2022-07-19T05:42:12;25.60;91.10
40808;DHT22;26523;52.504;13.498;2022-07-19T05:44:38;27.90;83.00
40808;DHT22;26523;52.504;13.498;2022-07-19T05:47:03;29.90;74.50
40808;DHT22;26523;52.504;13.498;2022-07-19T05:49:29;31.60;68.30
40808;DHT22;26523;52.504;13.498;2022-07-19T05:51:55;33.00;63.30
40808;DHT22;26523;52.504;13.498;2022-07-19T05:54:20;34.00;59.40
40808;DHT22;26523;52.504;13.498;2022-07-19T05:56:46;35.20;56.60
40808;DHT22;26523;52.504;13.498;2022-07-19T05:59:11;35.60;55.20
40808;DHT22;26523;52.504;13.498;2022-07-19T06:01:37;36.00;53.70
40808;DHT22;26523;52.504;13.498;2022-07-19T06:04:03;35.90;53.30
40808;DHT22;26523;52.504;13.498;2022-07-19T06:06:31;36.50;52.30
40808;DHT22;26523;52.504;13.498;2022-07-19T06:08:58;36.90;51.30
40808;DHT22;26523;52.504;13.498;2022-07-19T06:11:24;37.80;50.40
40808;DHT22;26523;52.504;13.498;2022-07-19T06:13:50;38.40;49.40
40808;DHT22;26523;52.504;13.498;2022-07-19T06:16:16;38.50;48.50
40808;DHT22;26523;52.504;13.498;2022-07-19T06:18:42;38.70;48.40
40808;DHT22;26523;52.504;13.498;2022-07-19T06:21:10;39.00;48.10
40808;DHT22;26523;52.504;13.498;2022-07-19T06:23:37;38.50;48.50
40808;DHT22;26523;52.504;13.498;2022-07-19T06:26:04;39.00;48.30
40808;DHT22;26523;52.504;13.498;2022-07-19T06:28:30;39.30;47.80
40808;DHT22;26523;52.504;13.498;2022-07-19T06:30:55;39.80;47.10
40808;DHT22;26523;52.504;13.498;2022-07-19T06:33:21;39.90;46.30
40808;DHT22;26523;52.504;13.498;2022-07-19T06:35:46;40.60;45.50
40808;DHT22;26523;52.504;13.498;2022-07-19T06:38:12;40.90;45.00
40808;DHT22;26523;52.504;13.498;2022-07-19T06:40:38;41.10;44.70
40808;DHT22;26523;52.504;13.498;2022-07-19T06:43:04;41.10;44.50
40808;DHT22;26523;52.504;13.498;2022-07-19T06:45:29;41.40;44.10
40808;DHT22;26523;52.504;13.498;2022-07-19T06:47:55;41.50;44.20
40808;DHT22;26523;52.504;13.498;2022-07-19T06:50:21;42.10;43.80
40808;DHT22;26523;52.504;13.498;2022-07-19T06:52:47;42.00;43.10
40808;DHT22;26523;52.504;13.498;2022-07-19T06:55:13;41.90;43.70
40808;DHT22;26523;52.504;13.498;2022-07-19T06:57:39;42.10;43.80
40808;DHT22;26523;52.504;13.498;2022-07-19T07:00:07;42.10;43.70
40808;DHT22;26523;52.504;13.498;2022-07-19T07:02:35;42.20;43.40
40808;DHT22;26523;52.504;13.498;2022-07-19T07:05:02;42.90;42.80
40808;DHT22;26523;52.504;13.498;2022-07-19T07:07:28;43.00;42.30
40808;DHT22;26523;52.504;13.498;2022-07-19T07:09:53;43.90;41.70
40808;DHT22;26523;52.504;13.498;2022-07-19T07:12:19;42.90;41.60
40808;DHT22;26523;52.504;13.498;2022-07-19T07:14:45;42.60;41.30
40808;DHT22;26523;52.504;13.498;2022-07-19T07:17:10;42.30;41.50
40808;DHT22;26523;52.504;13.498;2022-07-19T07:19:36;42.60;41.60
40808;DHT22;26523;52.504;13.498;2022-07-19T07:22:02;43.10;41.20
40808;DHT22;26523;52.504;13.498;2022-07-19T07:24:28;43.80;40.90
40808;DHT22;26523;52.504;13.498;2022-07-19T07:26:53;44.00;40.50
40808;DHT22;26523;52.504;13.498;2022-07-19T07:29:19;44.00;40.50
40808;DHT22;26523;52.504;13.498;2022-07-19T07:31:45;43.10;40.40
40808;DHT22;26523;52.504;13.498;2022-07-19T07:34:10;42.70;40.70
40808;DHT22;26523;52.504;13.498;2022-07-19T07:36:36;42.20;40.60
40808;DHT22;26523;52.504;13.498;2022-07-19T07:39:02;43.10;40.20
40808;DHT22;26523;52.504;13.498;2022-07-19T07:41:28;43.60;40.00
40808;DHT22;26523;52.504;13.498;2022-07-19T07:43:53;44.10;39.80
40808;DHT22;26523;52.504;13.498;2022-07-19T07:46:19;45.00;38.80
40808;DHT22;26523;52.504;13.498;2022-07-19T07:48:45;45.00;38.90
40808;DHT22;26523;52.504;13.498;2022-07-19T07:51:10;45.50;38.80
40808;DHT22;26523;52.504;13.498;2022-07-19T07:53:36;45.00;38.50
40808;DHT22;26523;52.504;13.498;2022-07-19T07:56:02;45.00;38.40
40808;DHT22;26523;52.504;13.498;2022-07-19T07:58:27;45.60;38.60
40808;DHT22;26523;52.504;13.498;2022-07-19T08:00:53;45.80;38.10
40808;DHT22;26523;52.504;13.498;2022-07-19T08:03:18;46.30;37.60
40808;DHT22;26523;52.504;13.498;2022-07-19T08:05:44;46.60;37.40
40808;DHT22;26523;52.504;13.498;2022-07-19T08:08:14;45.20;37.70
40808;DHT22;26523;52.504;13.498;2022-07-19T08:10:39;43.90;38.90
40808;DHT22;26523;52.504;13.498;2022-07-19T08:13:05;42.10;39.40
40808;DHT22;26523;52.504;13.498;2022-07-19T08:15:31;41.40;40.70
40808;DHT22;26523;52.504;13.498;2022-07-19T08:17:56;40.20;41.80
40808;DHT22;26523;52.504;13.498;2022-07-19T08:20:22;39.90;41.90
40808;DHT22;26523;52.504;13.498;2022-07-19T08:22:48;40.40;41.90
40808;DHT22;26523;52.504;13.498;2022-07-19T08:25:13;39.70;41.70
40808;DHT22;26523;52.504;13.498;2022-07-19T08:27:45;39.20;41.90
40808;DHT22;26523;52.504;13.498;2022-07-19T08:30:11;38.60;42.90
40808;DHT22;26523;52.504;13.498;2022-07-19T08:32:38;38.00;43.70
40808;DHT22;26523;52.504;13.498;2022-07-19T08:35:04;37.20;43.70
40808;DHT22;26523;52.504;13.498;2022-07-19T08:37:30;36.80;44.70
40808;DHT22;26523;52.504;13.498;2022-07-19T08:39:56;35.90;46.20
40808;DHT22;26523;52.504;13.498;2022-07-19T08:42:22;36.00;45.80
40808;DHT22;26523;52.504;13.498;2022-07-19T08:44:51;37.20;44.20
40808;DHT22;26523;52.504;13.498;2022-07-19T08:47:21;38.20;42.70
40808;DHT22;26523;52.504;13.498;2022-07-19T08:49:48;38.30;42.80
40808;DHT22;26523;52.504;13.498;2022-07-19T08:52:14;37.70;42.50
40808;DHT22;26523;52.504;13.498;2022-07-19T08:54:40;36.80;43.10
40808;DHT22;26523;52.504;13.498;2022-07-19T08:57:06;36.00;44.30
40808;DHT22;26523;52.504;13.498;2022-07-19T08:59:50;35.50;45.70
40808;DHT22;26523;52.504;13.498;2022-07-19T09:02:16;34.70;46.90
40808;DHT22;26523;52.504;13.498;2022-07-19T09:04:43;35.10;47.50
40808;DHT22;26523;52.504;13.498;2022-07-19T09:07:23;35.10;46.60
40808;DHT22;26523;52.504;13.498;2022-07-19T09:09:49;35.50;45.20
40808;DHT22;26523;52.504;13.498;2022-07-19T09:12:14;36.20;44.00
40808;DHT22;26523;52.504;13.498;2022-07-19T09:14:40;36.00;44.70
40808;DHT22;26523;52.504;13.498;2022-07-19T09:17:11;35.80;44.10
40808;DHT22;26523;52.504;13.498;2022-07-19T09:19:46;36.20;43.60
40808;DHT22;26523;52.504;13.498;2022-07-19T09:22:15;37.10;42.00
40808;DHT22;26523;52.504;13.498;2022-07-19T09:24:49;38.30;42.30
40808;DHT22;26523;52.504;13.498;2022-07-19T09:27:19;40.30;39.60
40808;DHT22;26523;52.504;13.498;2022-07-19T09:29:53;41.30;39.90
40808;DHT22;26523;52.504;13.498;2022-07-19T09:32:20;42.70;38.50
40808;DHT22;26523;52.504;13.498;2022-07-19T09:34:57;42.90;38.20
40808;DHT22;26523;52.504;13.498;2022-07-19T09:37:25;43.10;38.20
40808;DHT22;26523;52.504;13.498;2022-07-19T09:39:54;43.80;38.30
40808;DHT22;26523;52.504;13.498;2022-07-19T09:45:01;46.80;36.40
40808;DHT22;26523;52.504;13.498;2022-07-19T09:47:35;45.70;36.80
40808;DHT22;26523;52.504;13.498;2022-07-19T09:50:03;45.70;35.80
40808;DHT22;26523;52.504;13.498;2022-07-19T09:52:29;46.70;36.00
40808;DHT22;26523;52.504;13.498;2022-07-19T09:54:55;46.80;35.60
40808;DHT22;26523;52.504;13.498;2022-07-19T09:57:24;46.20;36.00
40808;DHT22;26523;52.504;13.498;2022-07-19T09:59:52;44.20;36.50
40808;DHT22;26523;52.504;13.498;2022-07-19T10:02:23;42.10;38.00
40808;DHT22;26523;52.504;13.498;2022-07-19T10:04:52;39.70;39.90
40808;DHT22;26523;52.504;13.498;2022-07-19T10:07:18;38.30;41.40
40808;DHT22;26523;52.504;13.498;2022-07-19T10:09:45;37.00;41.70
40808;DHT22;26523;52.504;13.498;2022-07-19T10:12:11;36.00;42.10
40808;DHT22;26523;52.504;13.498;2022-07-19T10:14:38;35.10;44.00
40808;DHT22;26523;52.504;13.498;2022-07-19T10:20:15;33.90;45.00
40808;DHT22;26523;52.504;13.498;2022-07-19T10:22:42;33.50;45.90
40808;DHT22;26523;52.504;13.498;2022-07-19T10:25:13;32.90;46.90
40808;DHT22;26523;52.504;13.498;2022-07-19T10:27:41;32.50;47.20
40808;DHT22;26523;52.504;13.498;2022-07-19T10:32:33;32.20;47.30
40808;DHT22;26523;52.504;13.498;2022-07-19T10:37:54;31.60;47.70
40808;DHT22;26523;52.504;13.498;2022-07-19T10:43:10;31.60;48.00
40808;DHT22;26523;52.504;13.498;2022-07-19T10:45:37;31.50;47.70
40808;DHT22;26523;52.504;13.498;2022-07-19T10:48:08;31.30;48.20
40808;DHT22;26523;52.504;13.498;2022-07-19T10:50:50;31.00;48.40
40808;DHT22;26523;52.504;13.498;2022-07-19T10:56:16;30.80;48.60
40808;DHT22;26523;52.504;13.498;2022-07-19T10:58:50;30.60;48.20
40808;DHT22;26523;52.504;13.498;2022-07-19T11:01:17;30.60;48.60
40808;DHT22;26523;52.504;13.498;2022-07-19T11:03:47;30.70;48.90
40808;DHT22;26523;52.504;13.498;2022-07-19T11:06:22;30.60;48.70
40808;DHT22;26523;52.504;13.498;2022-07-19T11:08:48;30.50;48.70
40808;DHT22;26523;52.504;13.498;2022-07-19T11:11:18;30.40;48.90
40808;DHT22;26523;52.504;13.498;2022-07-19T11:13:46;30.30;49.10
40808;DHT22;26523;52.504;13.498;2022-07-19T11:16:12;30.40;48.80
40808;DHT22;26523;52.504;13.498;2022-07-19T11:18:38;30.50;48.50
40808;DHT22;26523;52.504;13.498;2022-07-19T11:21:05;30.60;48.30
40808;DHT22;26523;52.504;13.498;2022-07-19T11:23:34;30.50;48.50
40808;DHT22;26523;52.504;13.498;2022-07-19T11:26:14;30.40;48.60
40808;DHT22;26523;52.504;13.498;2022-07-19T11:28:44;30.60;48.00
40808;DHT22;26523;52.504;13.498;2022-07-19T11:31:19;30.40;48.40
40808;DHT22;26523;52.504;13.498;2022-07-19T11:33:47;30.40;47.90
40808;DHT22;26523;52.504;13.498;2022-07-19T11:36:15;30.50;48.20
40808;DHT22;26523;52.504;13.498;2022-07-19T11:43:40;30.70;47.90
40808;DHT22;26523;52.504;13.498;2022-07-19T11:46:05;30.50;47.30
40808;DHT22;26523;52.504;13.498;2022-07-19T11:48:31;30.30;48.00
40808;DHT22;26523;52.504;13.498;2022-07-19T11:51:02;30.20;47.10
40808;DHT22;26523;52.504;13.498;2022-07-19T11:53:28;30.30;47.80
40808;DHT22;26523;52.504;13.498;2022-07-19T11:55:53;30.20;48.00
40808;DHT22;26523;52.504;13.498;2022-07-19T11:58:19;30.30;47.70
40808;DHT22;26523;52.504;13.498;2022-07-19T12:00:45;30.30;48.20
40808;DHT22;26523;52.504;13.498;2022-07-19T12:03:16;30.50;47.40
40808;DHT22;26523;52.504;13.498;2022-07-19T12:05:55;30.50;47.50
40808;DHT22;26523;52.504;13.498;2022-07-19T12:08:35;30.70;48.20
40808;DHT22;26523;52.504;13.498;2022-07-19T12:11:01;30.50;48.30
40808;DHT22;26523;52.504;13.498;2022-07-19T12:13:33;30.40;48.50
40808;DHT22;26523;52.504;13.498;2022-07-19T12:16:07;30.50;47.60
40808;DHT22;26523;52.504;13.498;2022-07-19T12:21:18;30.30;47.90
40808;DHT22;26523;52.504;13.498;2022-07-19T12:24:19;30.20;48.10
40808;DHT22;26523;52.504;13.498;2022-07-19T12:29:36;30.20;48.10
40808;DHT22;26523;52.504;13.498;2022-07-19T12:32:07;30.10;47.90
40808;DHT22;26523;52.504;13.498;2022-07-19T12:34:48;30.20;47.60
40808;DHT22;26523;52.504;13.498;2022-07-19T12:37:24;30.10;47.70
40808;DHT22;26523;52.504;13.498;2022-07-19T12:40:14;30.20;48.20
40808;DHT22;26523;52.504;13.498;2022-07-19T12:42:47;30.10;48.30
40808;DHT22;26523;52.504;13.498;2022-07-19T12:45:22;30.10;47.90
40808;DHT22;26523;52.504;13.498;2022-07-19T12:47:49;29.90;48.70
40808;DHT22;26523;52.504;13.498;2022-07-19T12:50:43;29.90;48.70
40808;DHT22;26523;52.504;13.498;2022-07-19T12:53:12;30.10;48.30
40808;DHT22;26523;52.504;13.498;2022-07-19T12:55:39;30.10;47.80
40808;DHT22;26523;52.504;13.498;2022-07-19T12:58:06;29.90;48.00
40808;DHT22;26523;52.504;13.498;2022-07-19T13:00:33;29.80;48.30
40808;DHT22;26523;52.504;13.498;2022-07-19T13:03:00;29.90;48.60
40808;DHT22;26523;52.504;13.498;2022-07-19T13:05:27;30.20;48.50
40808;DHT22;26523;52.504;13.498;2022-07-19T13:07:53;30.20;47.20
40808;DHT22;26523;52.504;13.498;2022-07-19T13:10:19;30.40;47.50
40808;DHT22;26523;52.504;13.498;2022-07-19T13:12:45;30.40;47.30
40808;DHT22;26523;52.504;13.498;2022-07-19T13:15:11;30.70;46.60
40808;DHT22;26523;52.504;13.498;2022-07-19T13:17:38;30.70;46.90
40808;DHT22;26523;52.504;13.498;2022-07-19T13:20:05;30.40;47.40
40808;DHT22;26523;52.504;13.498;2022-07-19T13:22:33;30.50;47.60
40808;DHT22;26523;52.504;13.498;2022-07-19T13:24:59;30.40;47.70
40808;DHT22;26523;52.504;13.498;2022-07-19T13:27:25;30.50;47.60
40808;DHT22;26523;52.504;13.498;2022-07-19T13:29:51;30.60;47.00
40808;DHT22;26523;52.504;13.498;2022-07-19T13:32:16;30.50;47.40
40808;DHT22;26523;52.504;13.498;2022-07-19T13:34:42;30.70;47.00
40808;DHT22;26523;52.504;13.498;2022-07-19T13:37:08;30.80;46.00
40808;DHT22;26523;52.504;13.498;2022-07-19T13:39:33;30.60;46.80
40808;DHT22;26523;52.504;13.498;2022-07-19T13:41:59;30.70;47.30
40808;DHT22;26523;52.504;13.498;2022-07-19T13:44:25;30.40;47.70
40808;DHT22;26523;52.504;13.498;2022-07-19T13:46:50;30.20;48.50
40808;DHT22;26523;52.504;13.498;2022-07-19T13:49:16;30.10;47.50
40808;DHT22;26523;52.504;13.498;2022-07-19T13:51:42;30.10;48.20
40808;DHT22;26523;52.504;13.498;2022-07-19T13:54:08;30.00;47.90
40808;DHT22;26523;52.504;13.498;2022-07-19T13:56:34;30.00;47.90
40808;DHT22;26523;52.504;13.498;2022-07-19T13:59:00;29.90;48.00
40808;DHT22;26523;52.504;13.498;2022-07-19T14:01:27;29.80;48.00
40808;DHT22;26523;52.504;13.498;2022-07-19T14:03:53;29.70;48.10
40808;DHT22;26523;52.504;13.498;2022-07-19T14:06:19;29.70;48.00
40808;DHT22;26523;52.504;13.498;2022-07-19T14:08:44;29.90;47.60
40808;DHT22;26523;52.504;13.498;2022-07-19T14:11:10;30.00;47.80
40808;DHT22;26523;52.504;13.498;2022-07-19T14:13:36;30.30;47.90
40808;DHT22;26523;52.504;13.498;2022-07-19T14:16:02;30.50;47.50
40808;DHT22;26523;52.504;13.498;2022-07-19T14:18:29;30.40;47.80
40808;DHT22;26523;52.504;13.498;2022-07-19T14:20:55;30.40;47.60
40808;DHT22;26523;52.504;13.498;2022-07-19T14:23:20;30.40;47.20
40808;DHT22;26523;52.504;13.498;2022-07-19T14:25:46;30.10;47.20
40808;DHT22;26523;52.504;13.498;2022-07-19T14:28:12;30.10;47.50
40808;DHT22;26523;52.504;13.498;2022-07-19T14:30:37;30.20;47.30
40808;DHT22;26523;52.504;13.498;2022-07-19T14:33:03;30.50;46.80
40808;DHT22;26523;52.504;13.498;2022-07-19T14:35:29;30.50;46.50
40808;DHT22;26523;52.504;13.498;2022-07-19T14:37:55;30.60;47.10
40808;DHT22;26523;52.504;13.498;2022-07-19T14:40:21;30.60;47.40
40808;DHT22;26523;52.504;13.498;2022-07-19T14:42:47;31.00;46.60
40808;DHT22;26523;52.504;13.498;2022-07-19T14:45:13;31.00;44.90
40808;DHT22;26523;52.504;13.498;2022-07-19T14:47:39;31.40;45.20
40808;DHT22;26523;52.504;13.498;2022-07-19T14:50:07;31.40;45.80
40808;DHT22;26523;52.504;13.498;2022-07-19T14:52:33;31.60;43.80
40808;DHT22;26523;52.504;13.498;2022-07-19T14:54:59;31.80;44.20
40808;DHT22;26523;52.504;13.498;2022-07-19T14:57:25;31.90;44.40
40808;DHT22;26523;52.504;13.498;2022-07-19T14:59:50;31.90;44.80
40808;DHT22;26523;52.504;13.498;2022-07-19T15:02:18;31.90;44.30
40808;DHT22;26523;52.504;13.498;2022-07-19T15:04:43;32.00;43.90
40808;DHT22;26523;52.504;13.498;2022-07-19T15:07:09;32.10;44.80
40808;DHT22;26523;52.504;13.498;2022-07-19T15:09:35;32.10;44.30
40808;DHT22;26523;52.504;13.498;2022-07-19T15:12:02;32.00;44.70
40808;DHT22;26523;52.504;13.498;2022-07-19T15:14:29;31.70;45.10
40808;DHT22;26523;52.504;13.498;2022-07-19T15:16:59;31.70;45.10
40808;DHT22;26523;52.504;13.498;2022-07-19T15:19:25;31.80;44.50
40808;DHT22;26523;52.504;13.498;2022-07-19T15:21:51;31.80;44.40
40808;DHT22;26523;52.504;13.498;2022-07-19T15:24:18;31.70;44.60
40808;DHT22;26523;52.504;13.498;2022-07-19T15:26:44;31.70;45.20
40808;DHT22;26523;52.504;13.498;2022-07-19T15:29:10;31.60;44.70
40808;DHT22;26523;52.504;13.498;2022-07-19T15:31:36;31.60;44.50
40808;DHT22;26523;52.504;13.498;2022-07-19T15:34:02;31.60;45.30
40808;DHT22;26523;52.504;13.498;2022-07-19T15:36:28;31.70;44.70
40808;DHT22;26523;52.504;13.498;2022-07-19T15:38:53;31.50;44.50
40808;DHT22;26523;52.504;13.498;2022-07-19T15:41:20;31.60;43.70
40808;DHT22;26523;52.504;13.498;2022-07-19T15:43:46;31.60;44.20
40808;DHT22;26523;52.504;13.498;2022-07-19T15:46:12;31.70;43.70
40808;DHT22;26523;52.504;13.498;2022-07-19T15:48:38;31.80;44.60
40808;DHT22;26523;52.504;13.498;2022-07-19T15:51:06;31.80;44.00